Terminal Aerodrome Forecast
Issued by NWS

Home | Current Version | Previous Version | Graphics & Text | Print | Product List | Glossary Off
Versions: 1 2 3 4 5 6 7 8 9 10 11 12 13 14 15 16 17 18 19 20

000
FTUS43 KDDC 251720
TAFHYS
TAF
KHYS 251720Z 2518/2618 04010KT P6SM BKN120
     FM261000 04007KT P6SM OVC008 PROB30 2610/2613 4SM -TSRA
      OVC003CB
     FM261300 05006KT P6SM OVC003
     FM261600 09005KT P6SM OVC020=

USA.gov is the U.S. government's official web portal to all federal, state and local government web resources and services.